Golden Gate, IL (62843)

7:09 PM CDT on July 29, 2016 (GMT -0500)
Uptown | | Change Station

Elev 441 ft 38.38 °N, 88.36 °W | Updated 4 minutes ago

Clear
Clear
79.5 °F
Feels Like 83 °F
N
0.0
Wind Variable Wind from South
Gusts 2.0 mph

Today
High -- | Low -- °F
--% Chance of Precip.
Yesterday
High -- | Low -- °F
Precip. -- in
Pressure 29.89 in
Visibility 10.0 miles
Clouds Clear
Heat Index 83 °F
Dew Point 73 °F
Humidity 80%
Rainfall 0.04 in
Snow Depth Not available.
5:52 AM 8:05 PM
Waning Crescent, 18% visible
METAR KFWC 292355Z AUTO 00000KT 10SM CLR 26/23 A2989 RMK AO1 LTG DSNT S AND SW 60007 T02600232 10281 20232
Pressure 29.89 in
Visibility 10.0 miles
Clouds Clear
Heat Index 83 °F
Dew Point 73 °F
Humidity 80%
Rainfall 0.04 in
Snow Depth Not available.
5:52 AM 8:05 PM
Waning Crescent, 18% visible
METAR KFWC 292355Z AUTO 00000KT 10SM CLR 26/23 A2989 RMK AO1 LTG DSNT S AND SW 60007 T02600232 10281 20232

10-Day Weather Forecast

Almanac

Astronomy

Jul. 29, 2016 Rise Set
Actual Time
Civil Twilight
Nautical Twilight
Astronomical Twilight
Moon
Length of Visible Light
Length of Day
Tomorrow will be .
, % of the Moon is Illuminated

Today's Extremes

State Highs State Lows

Community

WunderPhotos

Upload Photos

1,928,449 photos uploaded!

WunderBlog® & News

Nearby

Air Quality

  Air Quality AQ Index Pollutant
Not available.

Snow Depth

Station Depth Elevation

Earthquake Activity

City Distance Mag. Time & Date
Minimum magnitude displayed is 2.5.

Coastal Water Temperatures

Place Temperature

Stations

Nearby Weather Stations

Station Location Temp. Windchill Dew Point Humidity Wind Precip. Elev Updated Type
                   

Watches & Warnings

There are currently no watches in effect.